Plentywood, MT

2:15 AM MST on December 11, 2019 (GMT -0700)
Weidner SE Plentywood | | Change Station

Elev 2228 ft 48.77 °N, 104.55 °W | Updated 10 seconds ago

Mostly Cloudy
Mostly Cloudy
-4.9 °F
Feels Like -5 °F
N
2
Wind Variable Wind from ESE
Gusts 3.0 mph

Today
High -- | Low -- °F
--% Chance of Precip.
Yesterday
High -- | Low -- °F
Precip. -- in
Pressure 30.24 in
Visibility 10.0 miles
Clouds Scattered Clouds 11000 ft
Windchill -5 °F
Dew Point -8 °F
Humidity 85%
Rainfall 0.00 in
Snow Depth Not available.
7:41 AM 4:01 PM
Waxing Gibbous, 99% visible
METAR KD50 110835Z AUTO 28004KT 10SM SCT110 M24/M27 A3024 RMK AO2
Pressure 30.24 in
Visibility 10.0 miles
Clouds Scattered Clouds 11000 ft
Windchill -5 °F
Dew Point -8 °F
Humidity 85%
Rainfall 0.00 in
Snow Depth Not available.
7:41 AM 4:01 PM
Waxing Gibbous, 99% visible
METAR KD50 110835Z AUTO 28004KT 10SM SCT110 M24/M27 A3024 RMK AO2

Get Severe Weather Alerts

Thanks for signing up!

Be on the lookout for a verification email in your inbox.

You'll start receiving the daily forecast at 6 AM.

×

10-Day Weather Forecast

Almanac

Astronomy

Dec. 11, 2019 Rise Set
Actual Time
Civil Twilight
Nautical Twilight
Astronomical Twilight
Moon
Length of Visible Light
Length of Day
Tomorrow will be .
, % of the Moon is Illuminated

Today's Extremes

State Highs State Lows

Community

WunderPhotos

Category 6

Welcome to Category 6. This is the collective home for Weather Underground's featured writeups by Dr. Jeff Masters (right), Bob Henson (left), Chris Burt, and other regular contributors.

Nearby

Air Quality

  Air Quality AQ Index Pollutant
Not available.

Snow Depth

Station Depth Elevation

Earthquake Activity

City Distance Mag. Time & Date
Minimum magnitude displayed is 2.5.

Coastal Water Temperatures

Place Temperature

Stations

Nearby Weather Stations

Station Location Temp. Windchill Dew Point Humidity Wind Precip. Elev Updated Type
                   

Watches & Warnings

There are currently no watches in effect.